createdAt,value
2023-05-13T00:01:19.078Z,98.60
2023-05-13T00:03:26.382Z,98.70
2023-05-13T00:05:33.300Z,98.40
2023-05-13T00:07:40.430Z,98.20
2023-05-13T00:09:47.258Z,98.20
2023-05-13T00:11:54.432Z,98.40
2023-05-13T00:14:03.048Z,98.10
2023-05-13T00:16:10.221Z,97.50
2023-05-13T00:18:17.157Z,97.30
2023-05-13T00:20:24.358Z,97.30
2023-05-13T00:22:31.313Z,97.30
2023-05-13T00:24:38.596Z,97.10
2023-05-13T00:26:45.474Z,96.70
2023-05-13T00:28:52.621Z,96.60
2023-05-13T00:31:01.269Z,96.30
2023-05-13T00:33:09.012Z,96.00
2023-05-13T00:35:15.989Z,96.10
2023-05-13T00:37:23.026Z,96.40
2023-05-13T00:39:30.097Z,96.40
2023-05-13T00:41:37.289Z,96.70
2023-05-13T00:43:44.153Z,96.70
2023-05-13T00:45:51.825Z,97.00
2023-05-13T00:48:01.377Z,97.40
2023-05-13T00:50:09.970Z,97.70
2023-05-13T00:52:17.288Z,98.00
2023-05-13T00:54:24.366Z,98.00
2023-05-13T00:56:31.395Z,98.20
2023-05-13T00:58:38.863Z,98.60
2023-05-13T01:00:51.519Z,98.70
2023-05-13T01:03:08.978Z,98.90
2023-05-13T01:05:25.513Z,99.10
2023-05-13T01:07:43.290Z,99.40
2023-05-13T01:09:58.213Z,99.40
2023-05-13T01:12:10.863Z,99.90
2023-05-13T01:14:23.424Z,99.90
2023-05-13T01:16:34.435Z,99.90
2023-05-13T01:18:48.432Z,99.90
2023-05-13T01:20:56.290Z,99.90
2023-05-13T01:23:05.101Z,99.90
2023-05-13T01:25:12.896Z,99.70
2023-05-13T01:27:20.952Z,99.10
2023-05-13T01:29:28.183Z,99.20
2023-05-13T01:31:35.555Z,99.40
2023-05-13T01:33:43.826Z,99.70
2023-05-13T01:35:52.038Z,99.70
2023-05-13T01:38:01.771Z,99.80
2023-05-13T01:40:28.152Z,99.50
2023-05-13T01:42:42.008Z,99.20
2023-05-13T01:44:48.968Z,99.30
2023-05-13T01:46:56.188Z,99.70
2023-05-13T01:49:05.176Z,99.70
2023-05-13T01:51:12.800Z,99.90
2023-05-13T01:53:19.705Z,99.60
2023-05-13T01:55:30.821Z,99.10
2023-05-13T01:57:39.327Z,98.80
2023-05-13T01:59:46.406Z,98.50
2023-05-13T02:01:54.392Z,98.30
2023-05-13T02:04:03.046Z,98.00
2023-05-13T02:06:10.716Z,98.00
2023-05-13T02:08:20.201Z,97.90
2023-05-13T02:10:27.182Z,97.90
2023-05-13T02:12:35.999Z,97.80
2023-05-13T02:14:43.952Z,97.50
2023-05-13T02:16:51.404Z,97.40
2023-05-13T02:18:58.355Z,97.20
2023-05-13T02:21:08.364Z,96.80
2023-05-13T02:23:16.005Z,96.50
2023-05-13T02:25:23.292Z,96.40
2023-05-13T02:27:30.306Z,96.20
2023-05-13T02:29:39.659Z,96.10
2023-05-13T02:31:46.536Z,96.10
2023-05-13T02:33:53.601Z,96.20
2023-05-13T02:36:01.296Z,96.30
2023-05-13T02:38:08.333Z,96.40
2023-05-13T02:40:16.388Z,96.40
2023-05-13T02:42:25.248Z,96.50
2023-05-13T02:44:32.990Z,96.50
2023-05-13T02:46:42.530Z,96.50
2023-05-13T02:48:49.696Z,96.40
2023-05-13T02:50:56.482Z,96.30
2023-05-13T02:53:03.777Z,96.20
2023-05-13T02:55:13.280Z,96.20
2023-05-13T02:57:21.870Z,96.20
2023-05-13T02:59:28.849Z,96.00
2023-05-13T03:01:36.026Z,96.00
2023-05-13T03:03:44.612Z,96.30
2023-05-13T03:05:51.903Z,96.70
2023-05-13T03:07:59.378Z,97.10
2023-05-13T03:10:06.701Z,97.60
2023-05-13T03:12:13.732Z,98.50
2023-05-13T03:14:21.372Z,98.70
2023-05-13T03:16:28.450Z,98.70
2023-05-13T03:18:35.587Z,98.60
2023-05-13T03:20:44.197Z,97.80
2023-05-13T03:22:51.122Z,97.00
2023-05-13T03:24:56.612Z,97.20
2023-05-13T03:27:08.812Z,97.70
2023-05-13T03:29:16.471Z,98.30
2023-05-13T03:31:24.072Z,98.40
2023-05-13T03:33:31.035Z,98.80
2023-05-13T03:35:38.262Z,99.60
2023-05-13T03:37:46.821Z,99.00
2023-05-13T03:39:55.620Z,98.90
2023-05-13T03:42:03.842Z,98.50
2023-05-13T03:44:11.019Z,98.00
2023-05-13T03:46:18.042Z,98.30
2023-05-13T03:48:25.065Z,98.30
2023-05-13T03:50:33.899Z,98.00
2023-05-13T03:52:41.191Z,98.20
2023-05-13T03:54:50.783Z,97.70
2023-05-13T03:56:58.059Z,97.40
2023-05-13T03:59:05.036Z,97.00
2023-05-13T04:01:12.488Z,96.90
2023-05-13T04:03:20.062Z,96.60
2023-05-13T04:05:27.916Z,96.70
2023-05-13T04:07:34.685Z,96.70
2023-05-13T04:09:42.074Z,96.80
2023-05-13T04:11:50.996Z,96.50
2023-05-13T04:13:58.023Z,96.20
2023-05-13T04:16:04.868Z,95.80
2023-05-13T04:18:11.981Z,95.60
2023-05-13T04:20:19.317Z,95.60
2023-05-13T04:22:27.520Z,95.40
2023-05-13T04:24:34.444Z,95.20
2023-05-13T04:26:42.531Z,95.00
2023-05-13T04:28:51.108Z,94.90
2023-05-13T04:30:58.501Z,95.10
2023-05-13T04:33:05.562Z,95.20
2023-05-13T04:35:14.496Z,95.20
2023-05-13T04:37:24.289Z,95.50
2023-05-13T04:39:34.594Z,96.00
2023-05-13T04:41:41.937Z,96.40
2023-05-13T04:43:50.901Z,96.90
2023-05-13T04:45:57.744Z,96.90
2023-05-13T04:48:04.960Z,97.00
2023-05-13T04:50:12.445Z,98.00
2023-05-13T04:52:20.556Z,99.90
2023-05-13T04:54:27.526Z,99.00
2023-05-13T04:56:35.124Z,99.60
2023-05-13T04:58:41.926Z,99.60
2023-05-13T05:00:50.916Z,98.40
2023-05-13T05:02:58.164Z,99.90
2023-05-13T05:05:06.305Z,99.70
2023-05-13T05:07:13.893Z,98.70
2023-05-13T05:09:21.029Z,99.90
2023-05-13T05:11:30.152Z,99.90
2023-05-13T05:13:37.488Z,99.90
2023-05-13T05:15:44.809Z,99.90
2023-05-13T05:17:55.450Z,99.90
2023-05-13T05:20:02.550Z,99.90
2023-05-13T05:22:09.705Z,99.90
2023-05-13T05:24:16.621Z,99.90
2023-05-13T05:26:23.955Z,99.90
2023-05-13T05:28:31.192Z,99.90
2023-05-13T05:30:40.472Z,99.90
2023-05-13T05:32:55.619Z,99.90
2023-05-13T05:35:04.994Z,99.90
2023-05-13T05:37:13.125Z,99.90
2023-05-13T05:39:21.384Z,99.90
2023-05-13T05:41:28.360Z,99.90
2023-05-13T05:43:36.160Z,99.90
2023-05-13T05:45:43.495Z,99.90
2023-05-13T05:47:56.754Z,99.90
2023-05-13T05:50:04.543Z,99.90
2023-05-13T05:52:13.897Z,99.90
2023-05-13T05:54:20.767Z,99.90
2023-05-13T05:56:28.053Z,99.90
2023-05-13T05:58:34.872Z,99.70
2023-05-13T06:00:42.157Z,99.90
2023-05-13T06:02:49.990Z,99.90
2023-05-13T06:04:59.701Z,99.40
2023-05-13T06:07:07.312Z,99.60
2023-05-13T06:09:14.365Z,99.70
2023-05-13T06:11:21.904Z,99.90
2023-05-13T06:13:28.942Z,99.90
2023-05-13T06:15:37.465Z,99.90
2023-05-13T06:17:44.463Z,99.90
2023-05-13T06:19:51.860Z,99.90
2023-05-13T06:22:03.289Z,99.90
2023-05-13T06:24:11.865Z,99.90
2023-05-13T06:26:20.216Z,99.90
2023-05-13T06:28:27.408Z,99.90
2023-05-13T06:30:34.222Z,99.90
2023-05-13T06:32:53.588Z,99.90
2023-05-13T06:35:04.610Z,99.90
2023-05-13T06:37:13.534Z,99.90
2023-05-13T06:39:20.973Z,99.60
2023-05-13T06:41:28.767Z,98.60
2023-05-13T06:43:42.350Z,98.80
2023-05-13T06:46:00.247Z,99.20
2023-05-13T06:48:08.408Z,99.50
2023-05-13T06:50:17.417Z,99.60
2023-05-13T06:52:26.127Z,99.90
2023-05-13T06:54:33.204Z,99.90
2023-05-13T06:56:40.284Z,99.90
2023-05-13T06:58:47.107Z,99.90
2023-05-13T07:00:54.402Z,99.90
2023-05-13T07:03:01.217Z,99.90
2023-05-13T07:05:11.023Z,99.90
2023-05-13T07:07:18.343Z,99.90
2023-05-13T07:09:27.435Z,99.90
2023-05-13T07:11:34.287Z,99.90
2023-05-13T07:13:41.213Z,99.90
2023-05-13T07:15:48.347Z,99.90
2023-05-13T07:17:55.561Z,99.90
2023-05-13T07:20:02.452Z,99.90
2023-05-13T07:22:09.688Z,99.90
2023-05-13T07:24:16.555Z,99.90
2023-05-13T07:26:25.328Z,99.90
2023-05-13T07:28:32.204Z,99.90
2023-05-13T07:30:39.418Z,99.90
2023-05-13T07:32:46.715Z,99.90
2023-05-13T07:34:53.951Z,99.90
2023-05-13T07:37:00.722Z,99.90
2023-05-13T07:39:09.703Z,99.90
2023-05-13T07:41:16.490Z,99.90
2023-05-13T07:43:26.314Z,99.90
2023-05-13T07:45:33.208Z,99.90
2023-05-13T07:47:41.531Z,99.90
2023-05-13T07:49:49.807Z,99.90
2023-05-13T07:51:56.905Z,99.90
2023-05-13T07:54:03.717Z,99.60
2023-05-13T07:56:11.044Z,99.50
2023-05-13T07:58:19.559Z,99.80
2023-05-13T08:00:28.684Z,99.70
2023-05-13T08:02:36.244Z,99.50
2023-05-13T08:04:43.385Z,99.70
2023-05-13T08:06:50.283Z,99.60
2023-05-13T08:08:57.463Z,99.20
2023-05-13T08:11:04.290Z,98.90
2023-05-13T08:13:11.364Z,98.90
2023-05-13T08:15:18.495Z,99.00
2023-05-13T08:17:29.932Z,99.10
2023-05-13T08:19:36.935Z,99.30
2023-05-13T08:21:44.038Z,99.50
2023-05-13T08:23:53.055Z,99.10
2023-05-13T08:26:00.126Z,99.00
2023-05-13T08:28:07.228Z,99.00
2023-05-13T08:30:15.012Z,98.80
2023-05-13T08:32:22.005Z,99.00
2023-05-13T08:34:30.806Z,99.30
2023-05-13T08:36:37.689Z,99.60
2023-05-13T08:38:45.526Z,99.80
2023-05-13T08:40:52.623Z,99.80
2023-05-13T08:43:04.046Z,99.90
2023-05-13T08:45:14.181Z,99.80
2023-05-13T08:47:36.952Z,99.80
2023-05-13T08:49:45.920Z,99.90
2023-05-13T08:51:52.997Z,99.90
2023-05-13T08:54:00.532Z,99.50
2023-05-13T08:56:08.635Z,99.20
2023-05-13T08:58:15.461Z,99.00
2023-05-13T09:00:22.922Z,98.90
2023-05-13T09:02:30.146Z,98.80
2023-05-13T09:04:39.803Z,98.90
2023-05-13T09:06:51.046Z,99.10
2023-05-13T09:08:58.592Z,99.20
2023-05-13T09:11:05.974Z,99.30
2023-05-13T09:13:14.420Z,99.20
2023-05-13T09:15:22.582Z,99.10
2023-05-13T09:17:30.534Z,99.10
2023-05-13T09:19:38.757Z,98.60
2023-05-13T09:21:50.024Z,98.40
2023-05-13T09:24:11.579Z,98.40
2023-05-13T09:26:31.210Z,98.40
2023-05-13T09:28:38.083Z,98.50
2023-05-13T09:30:46.975Z,98.50
2023-05-13T09:33:10.105Z,98.30
2023-05-13T09:35:19.541Z,98.20
2023-05-13T09:37:28.468Z,98.00
2023-05-13T09:39:37.246Z,97.70
2023-05-13T09:41:44.522Z,97.60
2023-05-13T09:43:51.654Z,97.40
2023-05-13T09:46:00.009Z,97.30
2023-05-13T09:48:07.674Z,97.40
2023-05-13T09:50:15.752Z,97.60
2023-05-13T09:52:23.704Z,97.80
2023-05-13T09:54:38.822Z,97.90
2023-05-13T09:56:46.004Z,98.00
2023-05-13T09:58:55.915Z,97.80
2023-05-13T10:01:03.138Z,97.30
2023-05-13T10:03:10.052Z,97.20
2023-05-13T10:05:17.294Z,97.20
2023-05-13T10:07:25.717Z,97.50
2023-05-13T10:09:37.880Z,97.60
2023-05-13T10:11:48.876Z,97.60
2023-05-13T10:14:02.919Z,97.30
2023-05-13T10:16:11.821Z,97.40
2023-05-13T10:18:19.828Z,97.70
2023-05-13T10:20:27.385Z,97.80
2023-05-13T10:22:36.457Z,97.80
2023-05-13T10:24:46.302Z,98.10
2023-05-13T10:26:56.514Z,98.10
2023-05-13T10:29:03.786Z,98.10
2023-05-13T10:31:10.968Z,98.40
2023-05-13T10:33:19.083Z,98.40
2023-05-13T10:35:31.368Z,98.30
2023-05-13T10:38:03.550Z,98.20
2023-05-13T10:40:50.347Z,98.30
2023-05-13T10:43:12.482Z,98.10
2023-05-13T10:45:20.889Z,97.60
2023-05-13T10:47:28.178Z,97.10
2023-05-13T10:49:37.813Z,97.00
2023-05-13T10:51:50.181Z,97.00
2023-05-13T10:53:59.449Z,96.80
2023-05-13T10:56:10.056Z,96.70
2023-05-13T10:58:17.748Z,96.70
2023-05-13T11:00:34.823Z,96.70
2023-05-13T11:02:41.643Z,96.70
2023-05-13T11:05:02.592Z,97.00
2023-05-13T11:07:19.248Z,97.20
2023-05-13T11:09:34.469Z,97.40
2023-05-13T11:11:43.350Z,97.70
2023-05-13T11:13:52.478Z,98.00
2023-05-13T11:15:59.407Z,98.20
2023-05-13T11:18:08.401Z,98.20
2023-05-13T11:20:15.600Z,98.60
2023-05-13T11:22:24.984Z,99.10
2023-05-13T11:24:31.838Z,99.00
2023-05-13T11:26:51.941Z,99.10
2023-05-13T11:29:03.686Z,99.40
2023-05-13T11:31:20.128Z,99.60
2023-05-13T11:33:27.053Z,99.90
2023-05-13T11:35:35.112Z,99.90
2023-05-13T11:37:47.217Z,99.90
2023-05-13T11:39:54.179Z,99.90
2023-05-13T11:42:03.307Z,99.90
2023-05-13T11:44:11.463Z,99.90
2023-05-13T11:46:25.999Z,99.90
2023-05-13T11:48:34.834Z,99.90
2023-05-13T11:50:41.659Z,99.90
2023-05-13T11:52:48.842Z,99.90
2023-05-13T11:54:58.632Z,99.90
2023-05-13T11:57:07.883Z,99.90
2023-05-13T11:59:18.531Z,99.90
2023-05-13T12:01:26.478Z,99.90
2023-05-13T12:03:33.435Z,99.90
2023-05-13T12:05:40.899Z,99.90
2023-05-13T12:07:47.870Z,99.90
2023-05-13T12:09:56.491Z,99.90
2023-05-13T12:12:04.641Z,99.90
2023-05-13T12:14:13.409Z,99.90
2023-05-13T12:16:20.225Z,99.90
2023-05-13T12:18:27.451Z,99.90
2023-05-13T12:20:34.342Z,99.90
2023-05-13T12:22:53.334Z,99.90
2023-05-13T12:25:02.131Z,99.90
2023-05-13T12:27:11.763Z,99.90
2023-05-13T12:29:20.474Z,99.90
2023-05-13T12:31:27.431Z,99.90
2023-05-13T12:33:35.656Z,99.90
2023-05-13T12:35:42.425Z,99.90
2023-05-13T12:38:01.438Z,99.90
2023-05-13T12:40:14.919Z,99.90
2023-05-13T12:42:22.565Z,99.90
2023-05-13T12:44:31.172Z,99.90
2023-05-13T12:46:38.492Z,99.90
2023-05-13T12:48:46.820Z,99.90
2023-05-13T12:50:54.354Z,99.90
2023-05-13T12:53:02.100Z,99.90
2023-05-13T12:55:10.059Z,99.90
2023-05-13T12:57:18.608Z,99.90
2023-05-13T12:59:25.744Z,99.90
2023-05-13T13:01:34.426Z,99.90
2023-05-13T13:03:42.074Z,99.90
2023-05-13T13:05:49.337Z,99.90
2023-05-13T13:07:56.525Z,99.90
2023-05-13T13:10:03.393Z,99.90
2023-05-13T13:12:10.913Z,99.90
2023-05-13T13:14:17.708Z,99.90
2023-05-13T13:16:24.825Z,99.90
2023-05-13T13:18:33.460Z,99.90
2023-05-13T13:20:40.687Z,99.90
2023-05-13T13:22:47.430Z,99.90
2023-05-13T13:24:54.744Z,99.90
2023-05-13T13:27:01.669Z,99.90
2023-05-13T13:29:08.806Z,99.90
2023-05-13T13:31:15.613Z,99.90
2023-05-13T13:33:23.326Z,99.90
2023-05-13T13:35:31.986Z,99.90
2023-05-13T13:37:39.061Z,99.90
2023-05-13T13:39:45.989Z,99.90
2023-05-13T13:41:53.114Z,99.90
2023-05-13T13:43:59.958Z,99.90
2023-05-13T13:46:07.327Z,99.90
2023-05-13T13:48:14.301Z,99.90
2023-05-13T13:50:21.861Z,99.90
2023-05-13T13:52:30.762Z,99.90
2023-05-13T13:54:37.898Z,99.90
2023-05-13T13:56:44.821Z,99.90
2023-05-13T13:58:52.004Z,99.90
2023-05-13T14:00:58.767Z,99.90
2023-05-13T14:03:05.892Z,99.90
2023-05-13T14:05:13.350Z,99.90
2023-05-13T14:07:20.746Z,99.90
2023-05-13T14:09:29.395Z,99.90
2023-05-13T14:11:36.678Z,99.90
2023-05-13T14:13:43.553Z,99.90
2023-05-13T14:15:50.748Z,99.90
2023-05-13T14:17:57.755Z,99.90
2023-05-13T14:20:05.020Z,99.90
2023-05-13T14:22:11.930Z,99.90
2023-05-13T14:24:19.055Z,99.90
2023-05-13T14:26:27.883Z,99.90
2023-05-13T14:28:35.058Z,99.90
2023-05-13T14:30:42.304Z,99.90
2023-05-13T14:32:49.422Z,99.90
2023-05-13T14:34:56.598Z,99.90
2023-05-13T14:37:03.576Z,99.90
2023-05-13T14:39:11.531Z,99.90
2023-05-13T14:41:21.014Z,99.90
2023-05-13T14:43:29.718Z,99.90
2023-05-13T14:45:37.936Z,99.90
2023-05-13T14:47:44.918Z,99.90
2023-05-13T14:49:52.145Z,99.90
2023-05-13T14:51:58.975Z,99.90
2023-05-13T14:54:06.355Z,99.90
2023-05-13T14:56:13.174Z,99.90
2023-05-13T14:58:20.262Z,99.90
2023-05-13T15:00:28.980Z,99.90
2023-05-13T15:02:36.143Z,99.90
2023-05-13T15:04:43.182Z,99.90
2023-05-13T15:06:50.462Z,99.90
2023-05-13T15:08:57.240Z,99.90
2023-05-13T15:11:04.622Z,99.90
2023-05-13T15:13:11.552Z,99.90
2023-05-13T15:15:18.934Z,99.90
2023-05-13T15:17:27.657Z,99.90
2023-05-13T15:19:34.886Z,99.90
2023-05-13T15:21:42.209Z,99.90
2023-05-13T15:23:49.409Z,99.90
2023-05-13T15:25:56.295Z,99.90
2023-05-13T15:28:03.472Z,99.90
2023-05-13T15:30:11.821Z,99.90
2023-05-13T15:32:18.846Z,99.90
2023-05-13T15:34:27.974Z,99.90
2023-05-13T15:36:36.491Z,99.90
2023-05-13T15:38:43.472Z,99.90
2023-05-13T15:40:50.186Z,99.90
2023-05-13T15:42:58.392Z,99.90
2023-05-13T15:45:05.436Z,99.90
2023-05-13T15:47:22.834Z,99.90
2023-05-13T15:49:31.869Z,99.90
2023-05-13T15:51:39.253Z,99.90
2023-05-13T15:53:46.228Z,99.90
2023-05-13T15:55:53.413Z,99.90
2023-05-13T15:58:00.279Z,99.90
2023-05-13T16:00:08.661Z,99.90
2023-05-13T16:02:15.309Z,99.90
2023-05-13T16:04:22.496Z,99.90
2023-05-13T16:06:31.193Z,99.90
2023-05-13T16:08:38.094Z,99.90
2023-05-13T16:10:44.951Z,99.90
2023-05-13T16:12:51.999Z,99.90
2023-05-13T16:14:58.977Z,99.90
2023-05-13T16:17:06.152Z,99.90
2023-05-13T16:19:13.116Z,99.90
2023-05-13T16:21:21.229Z,99.90
2023-05-13T16:23:29.893Z,99.90
2023-05-13T16:25:37.280Z,99.90
2023-05-13T16:27:44.669Z,99.90
2023-05-13T16:29:51.657Z,99.90
2023-05-13T16:31:58.946Z,99.90
2023-05-13T16:34:06.109Z,99.90
2023-05-13T16:36:14.582Z,99.90
2023-05-13T16:38:21.700Z,99.90
2023-05-13T16:40:30.319Z,99.90
2023-05-13T16:42:37.509Z,99.90
2023-05-13T16:44:44.423Z,99.90
2023-05-13T16:46:51.332Z,99.90
2023-05-13T16:48:59.346Z,99.90
2023-05-13T16:51:07.861Z,99.90
2023-05-13T16:53:14.636Z,99.90
2023-05-13T16:55:21.766Z,99.90
2023-05-13T16:57:30.486Z,99.90
2023-05-13T16:59:37.664Z,99.90
2023-05-13T17:01:44.522Z,99.90
2023-05-13T17:03:51.928Z,99.90
2023-05-13T17:05:58.809Z,99.90
2023-05-13T17:08:06.037Z,99.90
2023-05-13T17:10:13.526Z,99.90
2023-05-13T17:12:20.794Z,99.90
2023-05-13T17:14:29.630Z,99.90
2023-05-13T17:16:36.816Z,99.90
2023-05-13T17:18:43.804Z,99.90
2023-05-13T17:20:50.917Z,99.90
2023-05-13T17:22:57.735Z,99.90
2023-05-13T17:25:05.276Z,99.90
2023-05-13T17:27:12.204Z,99.90
2023-05-13T17:29:19.298Z,99.90
2023-05-13T17:31:28.328Z,99.90
2023-05-13T17:33:35.695Z,99.90
2023-05-13T17:35:42.774Z,99.90
2023-05-13T17:37:49.912Z,99.90
2023-05-13T17:39:58.585Z,99.90
2023-05-13T17:42:05.655Z,99.90
2023-05-13T17:44:12.423Z,99.90
2023-05-13T17:46:19.657Z,99.90
2023-05-13T17:48:28.330Z,99.90
2023-05-13T17:50:35.469Z,99.90
2023-05-13T17:52:42.492Z,99.90
2023-05-13T17:54:49.520Z,99.90
2023-05-13T17:56:56.332Z,99.90
2023-05-13T17:59:03.718Z,99.90
2023-05-13T18:01:10.545Z,99.90
2023-05-13T18:03:17.608Z,99.90
2023-05-13T18:05:26.426Z,99.90
2023-05-13T18:07:33.787Z,99.90
2023-05-13T18:09:40.599Z,99.90
2023-05-13T18:11:48.430Z,99.90
2023-05-13T18:13:55.217Z,99.90
2023-05-13T18:16:02.984Z,99.90
2023-05-13T18:18:10.902Z,99.90
2023-05-13T18:20:18.082Z,99.90
2023-05-13T18:22:26.664Z,99.90
2023-05-13T18:24:33.686Z,99.90
2023-05-13T18:26:40.491Z,99.90
2023-05-13T18:28:47.601Z,99.90
2023-05-13T18:30:54.412Z,99.90
2023-05-13T18:33:01.630Z,99.90
2023-05-13T18:35:09.341Z,99.90
2023-05-13T18:37:16.792Z,99.90
2023-05-13T18:39:25.393Z,99.90
2023-05-13T18:41:32.420Z,99.90
2023-05-13T18:43:39.599Z,99.90
2023-05-13T18:45:46.837Z,99.90
2023-05-13T18:47:53.683Z,99.90
2023-05-13T18:50:00.892Z,99.90
2023-05-13T18:52:08.127Z,99.90
2023-05-13T18:54:15.417Z,99.90
2023-05-13T18:56:23.883Z,99.90
2023-05-13T18:58:31.007Z,99.90
2023-05-13T19:00:38.438Z,99.90
2023-05-13T19:02:45.681Z,99.90
2023-05-13T19:04:52.646Z,99.90
2023-05-13T19:06:59.627Z,99.90
2023-05-13T19:09:06.615Z,99.90
2023-05-13T19:11:14.810Z,99.90
2023-05-13T19:13:24.303Z,99.90
2023-05-13T19:15:32.498Z,99.90
2023-05-13T19:17:40.588Z,99.90
2023-05-13T19:19:47.831Z,99.90
2023-05-13T19:21:55.014Z,99.90
2023-05-13T19:24:04.323Z,99.90
2023-05-13T19:26:11.424Z,99.90
2023-05-13T19:28:19.532Z,99.90
2023-05-13T19:30:28.200Z,99.90
2023-05-13T19:32:35.392Z,99.90
2023-05-13T19:34:42.130Z,99.90
2023-05-13T19:36:49.491Z,99.90
2023-05-13T19:38:56.668Z,99.90
2023-05-13T19:41:04.007Z,99.90
2023-05-13T19:43:10.772Z,99.90
2023-05-13T19:45:18.110Z,99.90
2023-05-13T19:47:27.661Z,99.90
2023-05-13T19:49:34.782Z,99.90
2023-05-13T19:51:41.597Z,99.90
2023-05-13T19:53:48.729Z,99.90
2023-05-13T19:55:56.423Z,99.90
2023-05-13T19:58:03.653Z,99.90
2023-05-13T20:00:12.713Z,99.90
2023-05-13T20:02:19.791Z,99.90
2023-05-13T20:04:28.716Z,99.90
2023-05-13T20:06:35.971Z,99.90
2023-05-13T20:08:42.992Z,99.90
2023-05-13T20:10:49.916Z,99.90
2023-05-13T20:12:56.844Z,99.90
2023-05-13T20:15:04.541Z,99.90
2023-05-13T20:17:11.494Z,99.90
2023-05-13T20:19:19.094Z,99.90
2023-05-13T20:21:28.443Z,99.90
2023-05-13T20:23:35.571Z,99.90
2023-05-13T20:25:42.550Z,99.90
2023-05-13T20:27:49.474Z,99.90
2023-05-13T20:29:56.710Z,99.90
2023-05-13T20:32:04.053Z,99.90
2023-05-13T20:34:10.918Z,99.90
2023-05-13T20:36:18.360Z,99.90
2023-05-13T20:38:26.977Z,99.90
2023-05-13T20:40:34.309Z,99.90
2023-05-13T20:42:41.235Z,99.90
2023-05-13T20:44:48.284Z,99.90
2023-05-13T20:46:55.234Z,99.90
2023-05-13T20:49:02.369Z,99.90
2023-05-13T20:51:09.811Z,99.90
2023-05-13T20:53:17.449Z,99.90
2023-05-13T20:55:26.269Z,99.90
2023-05-13T20:57:33.250Z,99.90
2023-05-13T20:59:40.222Z,99.90
2023-05-13T21:01:48.483Z,99.90
2023-05-13T21:03:55.262Z,99.90
2023-05-13T21:06:02.193Z,99.90
2023-05-13T21:08:09.200Z,99.90
2023-05-13T21:10:17.161Z,99.90
2023-05-13T21:12:26.337Z,99.90
2023-05-13T21:14:33.946Z,99.90
2023-05-13T21:16:40.760Z,99.90
2023-05-13T21:18:47.991Z,99.90
2023-05-13T21:20:55.008Z,99.90
2023-05-13T21:23:02.397Z,99.90
2023-05-13T21:25:10.290Z,99.90
2023-05-13T21:27:17.709Z,99.90
2023-05-13T21:29:26.342Z,99.90
2023-05-13T21:31:33.621Z,99.90
2023-05-13T21:33:40.498Z,99.90
2023-05-13T21:35:47.687Z,99.90
2023-05-13T21:38:01.429Z,99.90
2023-05-13T21:40:18.685Z,99.90
2023-05-13T21:42:25.504Z,99.90
2023-05-13T21:44:34.481Z,99.90
2023-05-13T21:46:41.352Z,99.90
2023-05-13T21:48:48.514Z,99.90
2023-05-13T21:50:55.571Z,99.90
2023-05-13T21:53:02.560Z,99.90
2023-05-13T21:55:10.646Z,99.90
2023-05-13T21:57:17.618Z,99.90
2023-05-13T21:59:24.751Z,99.90
2023-05-13T22:01:33.272Z,99.90
2023-05-13T22:03:40.518Z,99.90
2023-05-13T22:05:47.328Z,99.90
2023-05-13T22:07:54.455Z,99.90
2023-05-13T22:10:01.245Z,99.90
2023-05-13T22:12:08.968Z,99.90
2023-05-13T22:14:15.944Z,99.90
2023-05-13T22:16:23.134Z,99.90
2023-05-13T22:18:32.024Z,99.90
2023-05-13T22:20:39.189Z,99.90
2023-05-13T22:22:45.954Z,99.90
2023-05-13T22:24:53.218Z,99.90
2023-05-13T22:27:01.357Z,99.90
2023-05-13T22:29:08.775Z,99.90
2023-05-13T22:31:15.651Z,99.90
2023-05-13T22:33:22.589Z,99.90
2023-05-13T22:35:32.986Z,99.90
2023-05-13T22:37:39.915Z,99.90
2023-05-13T22:39:47.145Z,99.90
2023-05-13T22:41:55.682Z,99.90
2023-05-13T22:44:02.841Z,99.90
2023-05-13T22:46:09.960Z,99.90
2023-05-13T22:48:17.565Z,99.90
2023-05-13T22:50:25.675Z,99.90
2023-05-13T22:52:34.640Z,99.90
2023-05-13T22:54:41.465Z,99.90
2023-05-13T22:56:48.652Z,99.90
2023-05-13T22:58:55.465Z,99.90
2023-05-13T23:01:02.458Z,99.90
2023-05-13T23:03:09.507Z,99.90
2023-05-13T23:05:17.017Z,99.90
2023-05-13T23:07:23.816Z,99.90
2023-05-13T23:09:32.658Z,99.90
2023-05-13T23:11:40.200Z,99.90
2023-05-13T23:13:47.272Z,99.90
2023-05-13T23:15:54.114Z,99.90
2023-05-13T23:18:01.341Z,99.90
2023-05-13T23:20:09.070Z,99.90
2023-05-13T23:22:16.239Z,99.90
2023-05-13T23:24:23.129Z,99.90
2023-05-13T23:26:31.946Z,99.90
2023-05-13T23:28:38.911Z,99.90
2023-05-13T23:30:46.385Z,99.90
2023-05-13T23:32:53.215Z,99.90
2023-05-13T23:35:00.485Z,99.90
2023-05-13T23:37:07.651Z,99.90
2023-05-13T23:39:14.986Z,99.90
2023-05-13T23:41:22.786Z,99.90
2023-05-13T23:43:31.601Z,99.90
2023-05-13T23:45:38.449Z,99.90
2023-05-13T23:47:45.596Z,99.90
2023-05-13T23:49:52.533Z,99.90
2023-05-13T23:51:59.564Z,99.90
2023-05-13T23:54:06.439Z,99.90
2023-05-13T23:56:13.724Z,99.90
2023-05-13T23:58:20.558Z,99.90
